^^
Grace C. Lehan Memorial Weather Station Historical Data
Daily Summary for March 22, 2021 Units:  Metric    English   Both
Daily Weekly Monthly Yearly
  High: Low: Average:
Temperature: 12.1 °C 1.4 °C 8.4 °C
Dew Point: 11.2 °C -3.9 °C 4.7 °C
Humidity: 95% 57.5% 78%
Wind Speed: 13.2km/h 0km/h 3.1km/h
Wind Gust: 32.2km/h - -
Wind- - WNW
Pressure: 1012.4 hPa 1007 hPa -
Precipitation: 1.78 mm    
 
 
Tabular Data for March 22, 2021
Time Temperature Dew Point Pressure Wind Wind Speed Wind Gust Humidity Rainfall Rate (Hourly) solar
00:04 10.8 °C 10.1 °C 1012.4 hPa South 1.1 km/h 9.7 km/h 95% 0 mm 0 W/m2
00:09 10.9 °C 10.1 °C 1012.4 hPa South 1 km/h 8 km/h 95% 0 mm 0 W/m2
00:14 11 °C 10.2 °C 1012.4 hPa South 1.4 km/h 9.7 km/h 95% 0 mm 0 W/m2
00:19 11.1 °C 10.3 °C 1012.4 hPa South 0.3 km/h 9.7 km/h 95% 0 mm 0 W/m2
00:24 11.1 °C 10.4 °C 1012.4 hPa South 0.2 km/h 9.7 km/h 95% 0 mm 0 W/m2
00:29 11.2 °C 10.4 °C 1012.4 hPa South 1.4 km/h 9.7 km/h 95% 0 mm 0 W/m2
00:34 11.3 °C 10.6 °C 1012.1 hPa South 1.6 km/h 9.7 km/h 95% 0 mm 0 W/m2
00:39 11.4 °C 10.7 °C 1012.1 hPa South 1.3 km/h 8 km/h 95% 0 mm 0 W/m2
00:44 11.5 °C 10.7 °C 1012.1 hPa South 0.2 km/h 8 km/h 95% 0 mm 0 W/m2
00:49 11.6 °C 10.8 °C 1011.7 hPa South 0.2 km/h 8 km/h 95% 0 mm 0 W/m2
00:54 11.7 °C 10.9 °C 1011.7 hPa South 1.4 km/h 8 km/h 95% 0 mm 0 W/m2
00:59 11.7 °C 10.9 °C 1011.7 hPa South 0.8 km/h 8 km/h 95% 0 mm 0 W/m2
01:04 11.7 °C 10.9 °C 1011.7 hPa Calm   8 km/h 95% 0 mm 0 W/m2
01:09 11.7 °C 10.9 °C 1011.4 hPa SSW 1.1 km/h 8 km/h 95% 0 mm 0 W/m2
01:14 11.8 °C 11 °C 1011.4 hPa SSW 0.2 km/h 8 km/h 95% 0 mm 0 W/m2
01:19 11.8 °C 11 °C 1011.4 hPa Calm   8 km/h 95% 0 mm 0 W/m2
01:24 11.8 °C 11 °C 1011.4 hPa SSW 1.4 km/h 16.1 km/h 95% 0 mm 0 W/m2
01:29 11.8 °C 11.1 °C 1011.4 hPa SSW 0.3 km/h 16.1 km/h 95% 0 mm 0 W/m2
01:34 11.8 °C 11.1 °C 1011.4 hPa Calm   16.1 km/h 95% 0 mm 0 W/m2
01:39 11.9 °C 11.1 °C 1011.1 hPa Calm     94.6% 0 mm 0 W/m2
01:44 11.9 °C 11 °C 1010.7 hPa SSW 1 km/h 6.4 km/h 94% 0 mm 0 W/m2
01:49 11.9 °C 11 °C 1010.7 hPa SSW 0.6 km/h 6.4 km/h 94% 0 mm 0 W/m2
01:54 12 °C 11.1 °C 1010.4 hPa SSW 0.3 km/h 6.4 km/h 94% 0 mm 0 W/m2
01:59 12.1 °C 11.1 °C 1010.4 hPa SSW 0.5 km/h 6.4 km/h 94% 0 mm 0 W/m2
02:04 12.1 °C 11.1 °C 1010.4 hPa Calm   6.4 km/h 94% 0 mm 0 W/m2
02:09 12.1 °C 11.2 °C 1010.4 hPa Calm   3.2 km/h 94% 0 mm 0 W/m2
02:14 12.1 °C 11.2 °C 1010.4 hPa SSW 0.2 km/h 4.8 km/h 94% 0 mm 0 W/m2
02:19 12.1 °C 11.1 °C 1010.4 hPa SSW 0.5 km/h 4.8 km/h 94% 0 mm 0 W/m2
02:24 12.1 °C 11.1 °C 1010 hPa Calm   4.8 km/h 94% 0 mm 0 W/m2
02:29 12.1 °C 11.1 °C 1010 hPa Calm   4.8 km/h 94% 0 mm 0 W/m2
02:34 12.1 °C 11.1 °C 1010 hPa Calm   4.8 km/h 94% 0 mm 0 W/m2
02:39 12.1 °C 11.1 °C 1010 hPa Calm     94% 0 mm 0 W/m2
02:44 12 °C 11.1 °C 1009.7 hPa Calm     94% 0 mm 0 W/m2
02:49 12 °C 11.1 °C 1009.7 hPa Calm     94% 0 mm 0 W/m2
02:54 11.9 °C 11 °C 1009.7 hPa Calm     94% 0 mm 0 W/m2
02:59 11.9 °C 11 °C 1009.7 hPa Calm     94% 0 mm 0 W/m2
03:04 11.9 °C 10.9 °C 1009.4 hPa Calm     94% 0 mm 0 W/m2
03:09 11.9 °C 10.9 °C 1009.4 hPa Calm     94% 0 mm 0 W/m2
03:14 11.9 °C 10.9 °C 1009.4 hPa Calm     94% 0 mm 0 W/m2
03:19 11.9 °C 10.9 °C 1009.4 hPa Calm     94% 0 mm 0 W/m2
03:24 11.9 °C 10.9 °C 1009 hPa SSW 1.1 km/h 12.9 km/h 94% 0 mm 0 W/m2
03:29 11.9 °C 10.9 °C 1009 hPa Calm   12.9 km/h 94% 0 mm 0 W/m2
03:34 11.8 °C 10.9 °C 1009 hPa Calm   12.9 km/h 94% 0 mm 0 W/m2
03:39 11.8 °C 10.7 °C 1009 hPa SSW 2.1 km/h 14.5 km/h 93.1% 0 mm 0 W/m2
03:44 11.8 °C 10.7 °C 1009 hPa SW 0.3 km/h 14.5 km/h 93% 0 mm 0 W/m2
03:49 11.8 °C 10.7 °C 1009 hPa SW 2.1 km/h 14.5 km/h 93% 0 mm 0 W/m2
03:54 11.7 °C 10.7 °C 1009 hPa SW 2.6 km/h 14.5 km/h 93% 0 mm 0 W/m2
03:59 11.7 °C 10.7 °C 1008.7 hPa SW 1.4 km/h 14.5 km/h 93% 0 mm 0 W/m2
04:00 11.8 °C 10.7 °C 1008.7 hPa SW 1.6 km/h 14.5 km/h 93% 0 mm 0 W/m2
04:09 11.8 °C 10.6 °C 1008.7 hPa SW 2.4 km/h 12.9 km/h 92% 0 mm 0 W/m2
04:14 11.8 °C 10.5 °C 1008.7 hPa SW 4 km/h 14.5 km/h 91.7% 0 mm 0 W/m2
04:19 11.9 °C 10.4 °C 1008.7 hPa SW 4.3 km/h 14.5 km/h 91% 0 mm 0 W/m2
04:24 11.9 °C 10.4 °C 1008.7 hPa SW 3.2 km/h 14.5 km/h 90.7% 0 mm 0 W/m2
04:29 11.9 °C 10.3 °C 1008.7 hPa SW 1.8 km/h 14.5 km/h 90% 0 mm 0 W/m2
04:34 11.9 °C 10.3 °C 1008.7 hPa SW 2.9 km/h 14.5 km/h 90% 0 mm 0 W/m2
04:39 11.9 °C 10.2 °C 1008.7 hPa SW 3.5 km/h 9.7 km/h 89.1% 0 mm 0 W/m2
04:44 11.9 °C 10.1 °C 1008.7 hPa SW 2.7 km/h 9.7 km/h 88.3% 0 mm 0 W/m2
04:49 11.9 °C 10.1 °C 1008.7 hPa SW 2.3 km/h 9.7 km/h 88% 0 mm 0 W/m2
04:54 12 °C 10.1 °C 1008.7 hPa WSW 3.2 km/h 17.7 km/h 88% 0 mm 0 W/m2
04:59 12 °C 10 °C 1008.7 hPa WSW 1.8 km/h 17.7 km/h 87.5% 0 mm 0 W/m2
05:04 11.9 °C 9.9 °C 1008.7 hPa WSW 2.1 km/h 17.7 km/h 87% 0 mm 0 W/m2
05:09 11.9 °C 9.8 °C 1008.4 hPa WSW 2.4 km/h 8 km/h 87% 0 mm 0 W/m2
05:14 11.9 °C 9.7 °C 1008.4 hPa Calm   8 km/h 86.1% 0 mm 0 W/m2
05:19 11.9 °C 9.6 °C 1008.7 hPa WSW 1.3 km/h 8 km/h 86% 0 mm 0 W/m2
05:24 11.8 °C 9.6 °C 1008.7 hPa SW 1.8 km/h 8 km/h 86% 0 mm 0 W/m2
05:29 11.8 °C 9.6 °C 1008.7 hPa WSW 1.8 km/h 17.7 km/h 86% 0 mm 0 W/m2
05:34 11.8 °C 9.6 °C 1008.7 hPa WSW 0.6 km/h 17.7 km/h 86% 0 mm 0 W/m2
05:39 11.8 °C 9.6 °C 1009 hPa WSW 1.4 km/h 16.1 km/h 86% 0.25 mm 0 W/m2
05:44 11.8 °C 9.5 °C 1008.7 hPa WSW 1.8 km/h 16.1 km/h 86% 0.25 mm 0 W/m2
05:49 11.7 °C 9.4 °C 1008.7 hPa Calm   16.1 km/h 86% 0.25 mm 0 W/m2
05:54 11.7 °C 9.5 °C 1008.7 hPa WSW 0.2 km/h 16.1 km/h 86.7% 0.25 mm 0 W/m2
05:59 11.6 °C 9.5 °C 1008.7 hPa WSW 0.2 km/h 16.1 km/h 87% 0.25 mm 0 W/m2
06:04 11.5 °C 9.4 °C 1008.7 hPa Calm   16.1 km/h 87% 0.51 mm 0 W/m2
06:09 11.3 °C 9.4 °C 1008.7 hPa Calm     88% 0.51 mm 0 W/m2
06:14 11.2 °C 9.3 °C 1008.7 hPa Calm     88% 0.51 mm 0 W/m2
06:19 11.1 °C 9.2 °C 1008.7 hPa Calm     88% 0.51 mm 0 W/m2
06:24 11 °C 9.2 °C 1008.7 hPa WSW 0.2 km/h 4.8 km/h 88.9% 0.76 mm 0 W/m2
06:29 10.8 °C 9.1 °C 1008.7 hPa SW 0.5 km/h 6.4 km/h 89% 0.76 mm 0 W/m2
06:34 10.8 °C 9 °C 1008.7 hPa Calm   6.4 km/h 89% 0.76 mm 0 W/m2
06:39 10.7 °C 8.9 °C 1008.7 hPa SW 0.2 km/h 3.2 km/h 89.2% 0.76 mm 0 W/m2
06:44 10.6 °C 9 °C 1008.7 hPa SW 0.5 km/h 4.8 km/h 90% 0.76 mm 0 W/m2
06:49 10.5 °C 8.9 °C 1008.7 hPa SW 0.3 km/h 4.8 km/h 90% 0.76 mm 0 W/m2
06:54 10.4 °C 8.8 °C 1008.7 hPa SW 0.3 km/h 4.8 km/h 90% 1.02 mm 0 W/m2
06:59 10.4 °C 8.9 °C 1008.7 hPa SW 0.8 km/h 6.4 km/h 90.9% 1.02 mm 0 W/m2
07:04 10.3 °C 8.9 °C 1008.7 hPa SW 1 km/h 6.4 km/h 91% 1.02 mm 0 W/m2
07:09 10.2 °C 8.8 °C 1008.7 hPa SW 0.6 km/h 8 km/h 91% 1.02 mm 0 W/m2
07:14 10.2 °C 8.8 °C 1008.7 hPa SW 0.6 km/h 11.3 km/h 91% 1.02 mm 0 W/m2
07:19 10.1 °C 8.7 °C 1009 hPa SW 0.5 km/h 11.3 km/h 91% 1.27 mm 0 W/m2
07:24 10.1 °C 8.7 °C 1009 hPa Calm   11.3 km/h 91.5% 1.27 mm 0 W/m2
07:29 10 °C 8.7 °C 1008.7 hPa Calm   11.3 km/h 91.5% 1.27 mm 0 W/m2
07:34 9.9 °C 8.7 °C 1009 hPa Calm   11.3 km/h 92% 1.27 mm 0 W/m2
07:39 9.9 °C 8.7 °C 1009 hPa Calm     92% 1.02 mm 12 W/m2
07:44 9.9 °C 8.7 °C 1009 hPa Calm     92% 1.02 mm 16 W/m2
07:49 9.8 °C 8.6 °C 1008.7 hPa SW 0.2 km/h 3.2 km/h 92% 1.02 mm 19 W/m2
07:54 9.8 °C 8.7 °C 1008.7 hPa SW 0.3 km/h 4.8 km/h 92.6% 1.02 mm 19 W/m2
07:59 9.8 °C 8.6 °C 1008.7 hPa SW 0.6 km/h 6.4 km/h 92% 1.02 mm 23 W/m2
08:00 9.8 °C 8.6 °C 1008.7 hPa Calm   6.4 km/h 92% 1.02 mm 23 W/m2
08:09 9.7 °C 8.4 °C 1009 hPa SW 0.3 km/h 4.8 km/h 92% 0.76 mm 28 W/m2
08:14 9.6 °C 8.4 °C 1009 hPa Calm   4.8 km/h 92% 0.76 mm 33 W/m2
08:19 9.5 °C 8.3 °C 1009 hPa SW 0.3 km/h 4.8 km/h 92% 0.76 mm 42 W/m2
08:24 9.5 °C 8.3 °C 1009 hPa Calm   4.8 km/h 92% 0.76 mm 44 W/m2
08:29 9.4 °C 8.2 °C 1009 hPa Calm   4.8 km/h 92% 0.76 mm 47 W/m2
08:34 9.4 °C 8.2 °C 1009 hPa SW 0.2 km/h 4.8 km/h 92% 0.76 mm 49 W/m2
08:39 9.4 °C 8.2 °C 1009 hPa SW 0.2 km/h 3.2 km/h 92% 0.25 mm 51 W/m2
08:44 9.4 °C 8.2 °C 1008.7 hPa Calm   3.2 km/h 92% 0.25 mm 51 W/m2
08:49 9.4 °C 8.2 °C 1009 hPa Calm   3.2 km/h 92% 0.25 mm 51 W/m2
08:54 9.4 °C 8.2 °C 1009 hPa SW 0.2 km/h 4.8 km/h 92% 0.25 mm 54 W/m2
08:59 9.4 °C 8.2 °C 1008.7 hPa WSW 0.6 km/h 8 km/h 92% 0.25 mm 56 W/m2
09:04 9.4 °C 8.2 °C 1008.7 hPa Calm   8 km/h 92% 0.25 mm 62 W/m2
09:09 9.4 °C 8.2 °C 1008.7 hPa WSW 0.2 km/h 3.2 km/h 92% 0 mm 67 W/m2
09:14 9.4 °C 8.2 °C 1008.7 hPa WSW 0.2 km/h 3.2 km/h 92% 0 mm 77 W/m2
09:19 9.4 °C 8.2 °C 1008.7 hPa WSW 0.2 km/h 4.8 km/h 91.5% 0 mm 90 W/m2
09:24 9.5 °C 8.1 °C 1008.7 hPa WSW 0.3 km/h 4.8 km/h 91% 0 mm 105 W/m2
09:29 9.6 °C 8.2 °C 1008.7 hPa WSW 0.2 km/h 4.8 km/h 91% 0 mm 109 W/m2
09:34 9.7 °C 8.3 °C 1008.7 hPa WSW 0.2 km/h 4.8 km/h 91.1% 0 mm 109 W/m2
09:39 9.8 °C 8.5 °C 1008.7 hPa Calm   4.8 km/h 91.9% 0 mm 120 W/m2
09:44 9.8 °C 8.4 °C 1008.7 hPa WSW 1.3 km/h 9.7 km/h 91% 0 mm 125 W/m2
09:49 9.8 °C 8.4 °C 1008.7 hPa Calm   9.7 km/h 91% 0 mm 142 W/m2
09:54 9.9 °C 8.4 °C 1008.7 hPa WSW 0.2 km/h 9.7 km/h 90.3% 0 mm 181 W/m2
09:59 10 °C 8.4 °C 1008.4 hPa WSW 1.1 km/h 9.7 km/h 90% 0 mm 186 W/m2
10:04 10.1 °C 8.4 °C 1008.4 hPa West 3.2 km/h 12.9 km/h 89.6% 0 mm 192 W/m2
10:09 10.2 °C 8.3 °C 1008.4 hPa West 2.9 km/h 12.9 km/h 88.6% 0 mm 193 W/m2
10:14 10.2 °C 8.3 °C 1008.4 hPa West 3.1 km/h 14.5 km/h 88% 0 mm 190 W/m2
10:19 10.3 °C 8.3 °C 1008.4 hPa Calm   14.5 km/h 87% 0 mm 190 W/m2
10:24 10.4 °C 8.3 °C 1008.4 hPa WSW 2.3 km/h 14.5 km/h 86.6% 0 mm 171 W/m2
10:29 10.5 °C 8.1 °C 1008.4 hPa WSW 0.3 km/h 14.5 km/h 85.1% 0 mm 151 W/m2
10:34 10.5 °C 8.1 °C 1008.4 hPa WSW 0.2 km/h 14.5 km/h 85% 0 mm 134 W/m2
10:39 10.6 °C 8.1 °C 1008.4 hPa West 4 km/h 11.3 km/h 84.7% 0 mm 137 W/m2
10:44 10.5 °C 7.8 °C 1008 hPa West 3.1 km/h 14.5 km/h 83.4% 0 mm 155 W/m2
10:49 10.4 °C 7.7 °C 1008 hPa West 2.9 km/h 14.5 km/h 83% 0 mm 156 W/m2
10:54 10.4 °C 7.7 °C 1008 hPa West 0.5 km/h 14.5 km/h 83% 0 mm 162 W/m2
10:59 10.5 °C 7.7 °C 1007.7 hPa West 2.9 km/h 14.5 km/h 83% 0 mm 160 W/m2
11:04 10.6 °C 7.6 °C 1007.7 hPa West 0.6 km/h 14.5 km/h 82% 0 mm 169 W/m2
11:09 10.6 °C 7.7 °C 1008 hPa West 2.1 km/h 12.9 km/h 82.4% 0 mm 172 W/m2
11:14 10.7 °C 7.6 °C 1008 hPa West 0.5 km/h 12.9 km/h 81.2% 0 mm 171 W/m2
11:19 10.7 °C 7.6 °C 1008 hPa West 0.5 km/h 12.9 km/h 81% 0 mm 165 W/m2
11:24 10.7 °C 7.6 °C 1007.7 hPa Calm   12.9 km/h 81% 0 mm 176 W/m2
11:29 10.8 °C 7.7 °C 1007.7 hPa West 0.6 km/h 12.9 km/h 81% 0 mm 181 W/m2
11:34 10.9 °C 7.8 °C 1007.7 hPa West 1.8 km/h 12.9 km/h 80.8% 0 mm 176 W/m2
11:39 11 °C 7.6 °C 1007.7 hPa West 2.9 km/h 9.7 km/h 79.5% 0 mm 165 W/m2
11:44 11 °C 7.3 °C 1007.7 hPa West 4.2 km/h 16.1 km/h 78% 0 mm 167 W/m2
11:49 11 °C 7.3 °C 1007.7 hPa West 0.8 km/h 16.1 km/h 78% 0 mm 167 W/m2
11:54 11.1 °C 7.3 °C 1007.7 hPa West 2.3 km/h 16.1 km/h 77.9% 0 mm 169 W/m2
11:59 11.1 °C 7.2 °C 1007.3 hPa West 1.1 km/h 16.1 km/h 76.8% 0 mm 171 W/m2
12:00 11.1 °C 7.2 °C 1007.3 hPa Calm   16.1 km/h 77% 0 mm 167 W/m2
12:09 11.1 °C 6.9 °C 1007.3 hPa West 3.1 km/h 11.3 km/h 75.4% 0 mm 174 W/m2
12:14 11.2 °C 6.9 °C 1007.3 hPa West 2.3 km/h 11.3 km/h 75% 0 mm 183 W/m2
12:19 11.2 °C 7.3 °C 1007.3 hPa West 0.5 km/h 11.3 km/h 76.6% 0 mm 183 W/m2
12:24 11.4 °C 7.3 °C 1007.3 hPa WNW 6.3 km/h 11.3 km/h 75.8% 0 mm 178 W/m2
12:29 11.4 °C 7.1 °C 1007.3 hPa WNW 1 km/h 11.3 km/h 74.6% 0 mm 163 W/m2
12:34 11.6 °C 7.2 °C 1007 hPa WNW 1.9 km/h 11.3 km/h 74.4% 0 mm 165 W/m2
12:39 11.6 °C 7.1 °C 1007 hPa WNW 0.6 km/h 9.7 km/h 73.6% 0 mm 163 W/m2
12:44 11.7 °C 6.9 °C 1007 hPa WNW 4.5 km/h 16.1 km/h 72.8% 0 mm 163 W/m2
12:49 11.7 °C 6.6 °C 1007 hPa WNW 2.7 km/h 16.1 km/h 71% 0 mm 162 W/m2
12:54 11.7 °C 6.6 °C 1007 hPa WNW 1 km/h 16.1 km/h 71% 0 mm 162 W/m2
12:59 11.7 °C 6.6 °C 1007 hPa WNW 3.2 km/h 16.1 km/h 70.7% 0 mm 153 W/m2
13:04 11.7 °C 6.2 °C 1007 hPa WNW 4 km/h 16.1 km/h 68.9% 0 mm 144 W/m2
13:09 11.7 °C 6.2 °C 1007 hPa WNW 5.1 km/h 12.9 km/h 69% 0 mm 142 W/m2
13:14 11.6 °C 5.9 °C 1007 hPa WNW 5.5 km/h 17.7 km/h 68.5% 0 mm 137 W/m2
13:19 11.4 °C 5.9 °C 1007 hPa WNW 4 km/h 17.7 km/h 68.7% 0 mm 128 W/m2
13:24 11.4 °C 5.9 °C 1007 hPa WNW 5.3 km/h 17.7 km/h 69% 0 mm 120 W/m2
13:29 11.3 °C 5.9 °C 1007 hPa WNW 3.2 km/h 17.7 km/h 69.3% 0 mm 113 W/m2
13:34 11.2 °C 6 °C 1007 hPa WNW 0.3 km/h 17.7 km/h 70.1% 0 mm 105 W/m2
13:39 11.2 °C 6 °C 1007 hPa WNW 1.8 km/h 9.7 km/h 70.3% 0 mm 93 W/m2
13:44 11.2 °C 5.9 °C 1007 hPa NW 3.9 km/h 17.7 km/h 70% 0 mm 91 W/m2
13:49 11.1 °C 5.7 °C 1007 hPa NW 3.5 km/h 17.7 km/h 69.3% 0 mm 83 W/m2
13:54 11.1 °C 5.7 °C 1007 hPa NW 7.4 km/h 20.9 km/h 69.3% 0 mm 60 W/m2
13:59 10.8 °C 5.4 °C 1007 hPa WNW 6.6 km/h 20.9 km/h 69.4% 0 mm 54 W/m2
14:04 10.6 °C 5.3 °C 1007 hPa NW 3.5 km/h 20.9 km/h 70% 0 mm 69 W/m2
14:09 10.3 °C 5 °C 1007.3 hPa WNW 6.1 km/h 17.7 km/h 69.5% 0 mm 69 W/m2
14:14 10.1 °C 5 °C 1007.3 hPa WNW 1.8 km/h 17.7 km/h 70.4% 0 mm 49 W/m2
14:19 10 °C 4.8 °C 1007.3 hPa NW 3.1 km/h 17.7 km/h 70.4% 0 mm 44 W/m2
14:24 9.8 °C 4.8 °C 1007.3 hPa NW 4.7 km/h 17.7 km/h 70.8% 0 mm 39 W/m2
14:29 9.7 °C 4.7 °C 1007.3 hPa NW 5 km/h 19.3 km/h 71% 0 mm 39 W/m2
14:34 9.5 °C 4.7 °C 1007.7 hPa NW 9 km/h 24.1 km/h 71.6% 0 mm 25 W/m2
14:39 9.3 °C 4.5 °C 1007.7 hPa NW 7.7 km/h 24.1 km/h 72% 0 mm 32 W/m2
14:44 9.1 °C 4.3 °C 1007.7 hPa NW 9.5 km/h 24.1 km/h 72% 0 mm 44 W/m2
14:49 8.9 °C 4.1 °C 1007.7 hPa NW 8.9 km/h 24.1 km/h 72% 0 mm 51 W/m2
14:54 8.7 °C 4 °C 1007.7 hPa NW 7.4 km/h 24.1 km/h 72.2% 0 mm 56 W/m2
14:59 8.6 °C 4.1 °C 1008 hPa NW 5.3 km/h 24.1 km/h 72.8% 0 mm 60 W/m2
15:04 8.6 °C 4 °C 1008 hPa NW 5.1 km/h 24.1 km/h 73% 0 mm 60 W/m2
15:09 8.4 °C 3.8 °C 1008 hPa NW 10.8 km/h 24.1 km/h 72.3% 0 mm 56 W/m2
15:14 8.3 °C 3.6 °C 1008 hPa NW 4.5 km/h 24.1 km/h 72% 0 mm 51 W/m2
15:19 8.2 °C 3.3 °C 1008 hPa NW 7.6 km/h 24.1 km/h 71.2% 0 mm 44 W/m2
15:24 8.1 °C 3 °C 1008 hPa NNW 8 km/h 24.1 km/h 70.1% 0 mm 44 W/m2
15:29 7.9 °C 2.9 °C 1008.4 hPa NNW 6.6 km/h 24.1 km/h 70.6% 0 mm 39 W/m2
15:34 7.8 °C 2.8 °C 1008.4 hPa NW 6.8 km/h 29 km/h 70.5% 0 mm 35 W/m2
15:39 7.7 °C 2.7 °C 1008 hPa NW 9.5 km/h 29 km/h 70.8% 0 mm 25 W/m2
15:44 7.5 °C 2.6 °C 1008 hPa NW 12.6 km/h 29 km/h 70.8% 0 mm 25 W/m2
15:49 7.3 °C 2.3 °C 1008.4 hPa NW 8.4 km/h 29 km/h 70.6% 0 mm 21 W/m2
15:54 7.2 °C 2.3 °C 1008.4 hPa WNW 6.3 km/h 29 km/h 71% 0 mm 18 W/m2
15:59 7.2 °C 2.3 °C 1008.7 hPa WNW 7.4 km/h 29 km/h 71% 0 mm 14 W/m2
16:00 7.1 °C 2.2 °C 1008.7 hPa NW 6.4 km/h 29 km/h 71% 0 mm 12 W/m2
16:09 7 °C 2.1 °C 1008.7 hPa NW 7.4 km/h 24.1 km/h 71% 0 mm 12 W/m2
16:14 6.9 °C 2.1 °C 1008.7 hPa NW 8.7 km/h 24.1 km/h 71% 0 mm 12 W/m2
16:19 6.8 °C 1.9 °C 1009 hPa NW 10.6 km/h 24.1 km/h 70.7% 0 mm 11 W/m2
16:24 6.7 °C 1.5 °C 1009 hPa NW 12.4 km/h 32.2 km/h 69.5% 0 mm 11 W/m2
16:29 6.5 °C 1.2 °C 1009 hPa NW 13.2 km/h 32.2 km/h 68.6% 0 mm 7 W/m2
16:34 6.3 °C 0.7 °C 1009.4 hPa NW 12.4 km/h 32.2 km/h 67.3% 0 mm 0 W/m2
16:39 6.1 °C 0.4 °C 1009.4 hPa NW 11.1 km/h 25.7 km/h 66.6% 0 mm 0 W/m2
16:44 6 °C 0.2 °C 1009.4 hPa NW 9.5 km/h 25.7 km/h 66.3% 0 mm 0 W/m2
16:49 5.8 °C 0.1 °C 1009.4 hPa NW 7.6 km/h 25.7 km/h 66.5% 0 mm 0 W/m2
16:54 5.8 °C 0.1 °C 1009.4 hPa NW 4.7 km/h 25.7 km/h 66.7% 0 mm 0 W/m2
16:59 5.7 °C -0.1 °C 1009.7 hPa NW 5.6 km/h 25.7 km/h 66.4% 0 mm 0 W/m2
17:04 5.6 °C -0.3 °C 1009.7 hPa NW 7.2 km/h 25.7 km/h 65.6% 0 mm 0 W/m2
17:09 5.5 °C -0.6 °C 1009.7 hPa NNW 7.7 km/h 19.3 km/h 65% 0 mm 0 W/m2
17:14 5.4 °C -0.8 °C 1009.7 hPa NNW 7.7 km/h 19.3 km/h 64.1% 0 mm 0 W/m2
17:19 5.3 °C -1.3 °C 1009.7 hPa NW 6.8 km/h 20.9 km/h 62.2% 0 mm 0 W/m2
17:24 5.3 °C -1.6 °C 1009.7 hPa NW 6.9 km/h 22.5 km/h 61% 0 mm 0 W/m2
17:29 5.2 °C -1.7 °C 1010 hPa NW 6 km/h 22.5 km/h 61% 0 mm 0 W/m2
17:34 5.2 °C -1.7 °C 1010 hPa NW 2.1 km/h 22.5 km/h 61% 0 mm 0 W/m2
17:39 5.1 °C -1.8 °C 1010 hPa NNW 5.1 km/h 19.3 km/h 61% 0 mm 0 W/m2
17:44 5.1 °C -1.8 °C 1010 hPa NNW 4.3 km/h 19.3 km/h 61% 0 mm 0 W/m2
17:49 5 °C -1.7 °C 1010.4 hPa NW 0.8 km/h 19.3 km/h 61.7% 0 mm 0 W/m2
17:54 4.9 °C -1.7 °C 1010.4 hPa NW 4.5 km/h 19.3 km/h 62% 0 mm 0 W/m2
17:59 4.9 °C -1.8 °C 1010.4 hPa NNW 6.1 km/h 20.9 km/h 62% 0 mm 0 W/m2
18:04 4.8 °C -1.8 °C 1010.4 hPa NW 5 km/h 20.9 km/h 62% 0 mm 0 W/m2
18:09 4.8 °C -1.8 °C 1010.4 hPa NNW 4 km/h 14.5 km/h 62.3% 0 mm 0 W/m2
18:14 4.7 °C -1.8 °C 1010.4 hPa NW 4 km/h 16.1 km/h 62.8% 0 mm 0 W/m2
18:19 4.6 °C -2.1 °C 1010.4 hPa NW 8.5 km/h 27.4 km/h 61.9% 0 mm 0 W/m2
18:24 4.6 °C -2.5 °C 1010.4 hPa NNW 9.5 km/h 27.4 km/h 60.3% 0 mm 0 W/m2
18:29 4.4 °C -2.9 °C 1010.4 hPa NW 11.7 km/h 27.4 km/h 58.7% 0 mm 0 W/m2
18:34 4.4 °C -3.1 °C 1010.4 hPa NW 11.7 km/h 27.4 km/h 58% 0 mm 0 W/m2
18:39 4.4 °C -3.2 °C 1010.7 hPa NW 11.9 km/h 27.4 km/h 57.8% 0 mm 0 W/m2
18:44 4.3 °C -3.3 °C 1010.7 hPa NW 8.5 km/h 27.4 km/h 57.5% 0 mm 0 W/m2
18:49 4.3 °C -3.3 °C 1010.7 hPa NW 9.3 km/h 27.4 km/h 58% 0 mm 0 W/m2
18:54 4.2 °C -3.4 °C 1010.7 hPa NNW 8.4 km/h 27.4 km/h 57.8% 0 mm 0 W/m2
18:59 4.1 °C -3.4 °C 1010.7 hPa NNW 8.5 km/h 27.4 km/h 58% 0 mm 0 W/m2
19:04 4.1 °C -3.6 °C 1010.7 hPa NW 7.9 km/h 27.4 km/h 57.5% 0 mm 0 W/m2
19:09 4 °C -3.6 °C 1010.7 hPa NW 9.5 km/h 24.1 km/h 57.8% 0 mm 0 W/m2
19:14 3.9 °C -3.6 °C 1010.7 hPa NNW 6.8 km/h 24.1 km/h 58% 0 mm 0 W/m2
19:19 3.8 °C -3.6 °C 1011.1 hPa NNW 2.6 km/h 24.1 km/h 58.2% 0 mm 0 W/m2
19:24 3.8 °C -3.7 °C 1010.7 hPa NW 9 km/h 24.1 km/h 58.1% 0 mm 0 W/m2
19:29 3.7 °C -3.7 °C 1010.7 hPa NNW 6.8 km/h 24.1 km/h 58.4% 0 mm 0 W/m2
19:34 3.7 °C -3.6 °C 1011.1 hPa NNW 5.1 km/h 24.1 km/h 59% 0 mm 0 W/m2
19:39 3.6 °C -3.7 °C 1011.1 hPa NW 4 km/h 16.1 km/h 59% 0 mm 0 W/m2
19:44 3.5 °C -3.7 °C 1011.1 hPa NW 1.9 km/h 16.1 km/h 59.3% 0 mm 0 W/m2
19:49 3.4 °C -3.6 °C 1011.1 hPa NNW 1.4 km/h 16.1 km/h 59.9% 0 mm 0 W/m2
19:54 3.3 °C -3.7 °C 1011.1 hPa NNW 0.2 km/h 16.1 km/h 60% 0 mm 0 W/m2
19:59 3.3 °C -3.7 °C 1011.1 hPa NW 2.1 km/h 16.1 km/h 60.4% 0 mm 0 W/m2
20:00 3.2 °C -3.6 °C 1011.1 hPa NW 3.2 km/h 16.1 km/h 61% 0 mm 0 W/m2
20:09 3.1 °C -3.8 °C 1011.1 hPa NW 1.9 km/h 9.7 km/h 60.8% 0 mm 0 W/m2
20:14 3 °C -3.8 °C 1011.1 hPa NW 4.2 km/h 16.1 km/h 61% 0 mm 0 W/m2
20:19 2.9 °C -3.8 °C 1011.1 hPa NW 0.8 km/h 16.1 km/h 61.3% 0 mm 0 W/m2
20:24 2.9 °C -3.7 °C 1011.4 hPa NW 0.6 km/h 16.1 km/h 62% 0 mm 0 W/m2
20:29 2.8 °C -3.7 °C 1011.4 hPa NW 1.8 km/h 16.1 km/h 62% 0 mm 0 W/m2
20:34 2.8 °C -3.8 °C 1011.4 hPa NW 0.2 km/h 16.1 km/h 62% 0 mm 0 W/m2
20:39 2.7 °C -3.7 °C 1011.4 hPa NW 0.5 km/h 4.8 km/h 62.6% 0 mm 0 W/m2
20:44 2.7 °C -3.8 °C 1011.7 hPa NW 2.3 km/h 6.4 km/h 62.6% 0 mm 0 W/m2
20:49 2.6 °C -3.7 °C 1011.7 hPa NW 0.2 km/h 6.4 km/h 63.3% 0 mm 0 W/m2
20:54 2.5 °C -3.6 °C 1011.7 hPa North 3.2 km/h 14.5 km/h 64% 0 mm 0 W/m2
20:59 2.5 °C -3.6 °C 1011.7 hPa NW 2.3 km/h 14.5 km/h 64% 0 mm 0 W/m2
21:04 2.5 °C -3.6 °C 1011.7 hPa NW 6.6 km/h 19.3 km/h 64% 0 mm 0 W/m2
21:09 2.6 °C -3.6 °C 1012.1 hPa NNW 7.1 km/h 22.5 km/h 64% 0 mm 0 W/m2
21:14 2.6 °C -3.6 °C 1012.1 hPa NW 5.1 km/h 22.5 km/h 64% 0 mm 0 W/m2
21:19 2.7 °C -3.4 °C 1012.1 hPa NW 7.6 km/h 22.5 km/h 64.2% 0 mm 0 W/m2
21:24 2.7 °C -3.4 °C 1012.1 hPa NW 5.5 km/h 22.5 km/h 64% 0 mm 0 W/m2
21:29 2.7 °C -3.4 °C 1012.4 hPa NNW 5.3 km/h 22.5 km/h 64% 0 mm 0 W/m2
21:34 2.7 °C -3.4 °C 1012.4 hPa NW 4.7 km/h 22.5 km/h 64% 0 mm 0 W/m2
21:39 2.7 °C -3.4 °C 1012.4 hPa NW 1.9 km/h 11.3 km/h 64% 0 mm 0 W/m2
21:44 2.6 °C -3.5 °C 1012.1 hPa NW 4.2 km/h 17.7 km/h 64% 0 mm 0 W/m2
21:49 2.6 °C -3.4 °C 1012.1 hPa NNW 3.2 km/h 17.7 km/h 64.6% 0 mm 0 W/m2
21:54 2.6 °C -3.3 °C 1012.1 hPa NW 2.6 km/h 17.7 km/h 65% 0 mm 0 W/m2
21:59 2.6 °C -3.3 °C 1012.1 hPa NW 5.5 km/h 17.7 km/h 65% 0 mm 0 W/m2
22:04 2.5 °C -3.4 °C 1011.7 hPa NW 3.5 km/h 17.7 km/h 64.8% 0 mm 0 W/m2
22:09 2.5 °C -3.4 °C 1011.7 hPa NW 5.6 km/h 12.9 km/h 65% 0 mm 0 W/m2
22:14 2.4 °C -3.5 °C 1011.7 hPa NW 7.1 km/h 19.3 km/h 64.8% 0 mm 0 W/m2
22:19 2.4 °C -3.6 °C 1011.7 hPa NW 6.9 km/h 19.3 km/h 64.5% 0 mm 0 W/m2
22:24 2.4 °C -3.5 °C 1011.7 hPa NW 5.6 km/h 19.3 km/h 65% 0 mm 0 W/m2
22:29 2.3 °C -3.6 °C 1011.7 hPa NW 8.2 km/h 19.3 km/h 65% 0 mm 0 W/m2
22:34 2.3 °C -3.6 °C 1011.7 hPa NW 2.9 km/h 19.3 km/h 65% 0 mm 0 W/m2
22:39 2.2 °C -3.7 °C 1011.7 hPa NW 2.4 km/h 11.3 km/h 65% 0 mm 0 W/m2
22:44 2.2 °C -3.7 °C 1011.7 hPa NW 4 km/h 17.7 km/h 65% 0 mm 0 W/m2
22:49 2.2 °C -3.7 °C 1011.7 hPa NW 4.2 km/h 17.7 km/h 65.2% 0 mm 0 W/m2
22:54 2.1 °C -3.7 °C 1011.7 hPa NW 5.3 km/h 17.7 km/h 65.7% 0 mm 0 W/m2
22:59 2.1 °C -3.7 °C 1011.4 hPa NW 4.8 km/h 17.7 km/h 65.5% 0 mm 0 W/m2
23:09 2 °C -3.7 °C 1011.4 hPa NW 4 km/h 16.1 km/h 66% 0 mm 0 W/m2
23:14 1.9 °C -3.7 °C 1011.4 hPa NNW 4 km/h 16.1 km/h 66% 0 mm 0 W/m2
23:19 1.9 °C -3.8 °C 1011.4 hPa NW 1.1 km/h 16.1 km/h 66% 0 mm 0 W/m2
23:24 1.8 °C -3.8 °C 1011.4 hPa NW 3.7 km/h 16.1 km/h 66% 0 mm 0 W/m2
23:29 1.8 °C -3.8 °C 1011.4 hPa NNW 2.6 km/h 16.1 km/h 66.4% 0 mm 0 W/m2
23:34 1.7 °C -3.7 °C 1011.4 hPa NNW 1.6 km/h 16.1 km/h 67% 0 mm 0 W/m2
23:39 1.7 °C -3.8 °C 1011.4 hPa NNW 1.6 km/h 9.7 km/h 67% 0 mm 0 W/m2
23:44 1.6 °C -3.8 °C 1011.4 hPa NNW 1.3 km/h 9.7 km/h 67% 0 mm 0 W/m2
23:49 1.6 °C -3.9 °C 1011.4 hPa NW 1.8 km/h 9.7 km/h 67% 0 mm 0 W/m2
23:54 1.5 °C -3.9 °C 1011.4 hPa NW 2.6 km/h 9.7 km/h 67% 0 mm 0 W/m2
23:59 1.4 °C -3.9 °C 1011.4 hPa NW 1.1 km/h 9.7 km/h 67.6% 0 mm 0 W/m2
Hartford County Weather
Compliments of Weather Underground - 4 mb